Time;durP1;ratioP1;P1;durP2;ratioP2;P2;SDS_P1;SDS_P2;PMS_P1;PMS_P2;Temp;Humidity;BMP_temperature;BMP_pressure;BME280_temperature;BME280_humidity;BME280_pressure;Samples;Min_cycle;Max_cycle;Signal;HPM_P1;HPM_P2
2022/03/16 00:01:54;;;;;;;111.97;48.72;;;;;;;5.06;100.00;102542.06;4808563;30;20066;-82
2022/03/16 00:04:20;;;;;;;92.50;48.20;;;;;;;5.04;100.00;102537.84;4810981;29;20016;-83
2022/03/16 00:06:45;;;;;;;138.13;51.35;;;;;;;5.01;100.00;102538.94;4842696;29;20034;-83
2022/03/16 00:09:11;;;;;;;144.00;52.78;;;;;;;5.01;100.00;102535.41;4825331;29;20129;-83
2022/03/16 00:11:36;;;;;;;170.55;55.78;;;;;;;5.00;100.00;102536.38;4810792;29;20091;-83
2022/03/16 00:14:02;;;;;;;126.82;51.63;;;;;;;4.98;100.00;102533.84;4814142;29;20043;-83
2022/03/16 00:16:27;;;;;;;150.68;54.35;;;;;;;4.93;100.00;102539.53;4830054;29;20049;-83
2022/03/16 00:18:53;;;;;;;158.68;55.47;;;;;;;4.89;100.00;102538.06;4795344;29;20050;-83
2022/03/16 00:21:18;;;;;;;175.30;56.17;;;;;;;4.65;100.00;102508.81;4826281;29;20031;-83
2022/03/16 00:23:44;;;;;;;181.73;55.83;;;;;;;4.89;100.00;102545.22;4824018;29;20051;-84
2022/03/16 00:26:09;;;;;;;120.78;53.70;;;;;;;4.87;100.00;102542.69;4810690;29;20067;-83
2022/03/16 00:28:34;;;;;;;118.75;54.00;;;;;;;4.88;100.00;102536.38;4810328;29;20046;-83
2022/03/16 00:31:02;;;;;;;157.23;54.10;;;;;;;4.87;100.00;102541.84;4810778;29;20023;-81
2022/03/16 00:33:27;;;;;;;164.57;55.22;;;;;;;4.81;100.00;102542.31;4824519;29;20035;-83
2022/03/16 00:35:53;;;;;;;142.05;54.70;;;;;;;4.74;100.00;102535.75;4825511;29;20059;-82
2022/03/16 00:38:18;;;;;;;140.35;55.17;;;;;;;4.60;100.00;102529.66;4826047;29;20053;-83
2022/03/16 00:40:45;;;;;;;105.95;52.13;;;;;;;4.69;100.00;102538.75;4798054;29;20018;-83
2022/03/16 00:43:10;;;;;;;109.85;55.50;;;;;;;4.62;100.00;102538.38;4800006;29;20094;-82
2022/03/16 00:45:37;;;;;;;148.75;56.22;;;;;;;4.68;100.00;102553.91;4796591;29;20023;-83
2022/03/16 00:48:02;;;;;;;119.72;53.70;;;;;;;4.66;100.00;102557.66;4811461;29;20120;-83
2022/03/16 00:50:28;;;;;;;112.78;53.85;;;;;;;4.65;100.00;102563.97;4794734;29;20047;-83
2022/03/16 00:52:53;;;;;;;104.10;53.42;;;;;;;4.59;100.00;102554.59;4842129;29;20034;-83
2022/03/16 00:55:20;;;;;;;108.75;53.17;;;;;;;4.52;100.00;102556.03;4810693;29;20038;-83
2022/03/16 00:57:45;;;;;;;123.55;55.38;;;;;;;4.60;100.00;102566.13;4825995;29;20019;-83
2022/03/16 01:00:11;;;;;;;97.05;52.60;;;;;;;4.60;100.00;102566.13;4826530;29;20087;-84
2022/03/16 01:02:36;;;;;;;96.35;53.22;;;;;;;4.50;100.00;102549.97;4796120;29;20164;-84
2022/03/16 01:05:02;;;;;;;103.20;52.75;;;;;;;4.54;100.00;102578.13;4811481;29;20070;-83
2022/03/16 01:07:28;;;;;;;108.93;54.80;;;;;;;4.52;100.00;102576.53;4781732;29;20110;-83
2022/03/16 01:09:55;;;;;;;107.65;54.72;;;;;;;4.53;100.00;102578.22;4808938;29;20027;-83
2022/03/16 01:12:20;;;;;;;114.60;55.30;;;;;;;4.53;100.00;102575.56;4792401;30;20042;-83
2022/03/16 01:14:46;;;;;;;97.22;52.30;;;;;;;4.47;100.00;102571.56;4788519;30;20031;-84
2022/03/16 01:17:12;;;;;;;99.75;52.92;;;;;;;4.43;100.00;102567.41;4810495;29;20019;-83
2022/03/16 01:19:37;;;;;;;95.35;52.15;;;;;;;4.49;100.00;102588.25;4813450;29;20040;-84
2022/03/16 01:22:04;;;;;;;94.65;52.60;;;;;;;4.34;100.00;102566.28;4827011;29;20035;-83
2022/03/16 01:24:31;;;;;;;95.57;51.90;;;;;;;4.43;100.00;102586.91;4828251;29;20029;-83
2022/03/16 01:26:57;;;;;;;87.53;49.92;;;;;;;3.22;100.00;102405.97;4862245;24;20057;-82
2022/03/16 01:29:26;;;;;;;103.57;51.67;;;;;;;3.01;100.00;102358.72;4814028;29;20023;-82
2022/03/16 01:31:53;;;;;;;91.53;51.03;;;;;;;3.26;100.00;102402.13;4796086;29;20034;-83
2022/03/16 01:34:20;;;;;;;99.03;48.03;;;;;;;2.57;100.00;102298.97;4813596;29;20043;-82
2022/03/16 01:36:45;;;;;;;96.40;48.70;;;;;;;4.30;100.00;102593.25;4811105;29;20031;-81
2022/03/16 01:39:11;;;;;;;90.53;48.10;;;;;;;3.24;100.00;102422.66;4813381;29;20053;-83
2022/03/16 01:41:37;;;;;;;95.70;46.40;;;;;;;4.20;100.00;102569.97;4796131;29;20045;-83
2022/03/16 01:44:03;;;;;;;82.20;44.28;;;;;;;4.04;100.00;102555.22;4813303;29;20015;-83
2022/03/16 01:46:28;;;;;;;100.20;47.50;;;;;;;3.97;100.00;102542.38;4811786;29;20031;-83
2022/03/16 01:48:54;;;;;;;85.20;45.97;;;;;;;4.21;100.00;102590.34;4796171;29;20019;-83
2022/03/16 01:51:21;;;;;;;102.50;47.67;;;;;;;4.20;100.00;102580.63;4778270;29;20032;-83
2022/03/16 01:53:46;;;;;;;137.40;47.38;;;;;;;4.04;100.00;102569.44;4790797;30;20027;-83
2022/03/16 01:56:14;;;;;;;87.65;43.28;;;;;;;4.02;100.00;102566.00;4792321;29;20087;-84
2022/03/16 01:58:40;;;;;;;87.93;45.53;;;;;;;4.06;100.00;102580.81;4792509;30;20083;-84
2022/03/16 02:01:05;;;;;;;93.95;44.83;;;;;;;3.84;100.00;102538.06;4777978;30;20031;-83
2022/03/16 02:03:30;;;;;;;96.32;45.55;;;;;;;4.07;100.00;102578.97;4792446;30;20135;-83
2022/03/16 02:05:56;;;;;;;73.80;42.55;;;;;;;4.14;100.00;102590.88;4807942;30;20042;-83
2022/03/16 02:08:22;;;;;;;94.10;44.80;;;;;;;4.14;100.00;102591.75;4792866;30;20088;-83
2022/03/16 02:10:47;;;;;;;89.95;41.70;;;;;;;4.08;100.00;102599.34;4794312;30;20057;-84
2022/03/16 02:13:13;;;;;;;160.65;47.13;;;;;;;4.11;100.00;102609.78;4807945;30;20073;-83
2022/03/16 02:15:39;;;;;;;148.18;47.38;;;;;;;4.07;100.00;102602.97;4806489;29;20031;-84
2022/03/16 02:18:06;;;;;;;93.30;43.60;;;;;;;4.10;100.00;102613.38;4802798;29;20058;-82
2022/03/16 02:20:31;;;;;;;144.55;45.00;;;;;;;4.00;100.00;102600.72;4831178;29;20030;-84
2022/03/16 02:22:58;;;;;;;97.25;43.80;;;;;;;4.08;100.00;102618.00;4828188;29;20149;-83
2022/03/16 02:25:25;;;;;;;72.40;40.63;;;;;;;4.06;100.00;102620.75;4796844;30;20027;-83
2022/03/16 02:27:52;;;;;;;97.40;44.80;;;;;;;4.05;100.00;102615.56;4812068;30;20064;-84
2022/03/16 02:30:20;;;;;;;105.45;43.25;;;;;;;4.10;100.00;102624.88;4943777;24;20047;-84
2022/03/16 02:32:47;;;;;;;112.63;43.28;;;;;;;3.45;100.00;102518.72;4811155;30;20023;-83
2022/03/16 02:35:12;;;;;;;79.32;39.25;;;;;;;4.05;100.00;102618.22;4814902;29;20023;-84
2022/03/16 02:37:39;;;;;;;100.75;38.63;;;;;;;3.98;100.00;102618.66;4813952;29;20042;-84
2022/03/16 02:40:12;;;;;;;87.13;37.60;;;;;;;4.06;100.00;102623.41;4810306;29;20058;-85
2022/03/16 02:42:38;;;;;;;84.78;36.45;;;;;;;4.09;100.00;102633.00;4814280;29;20037;-84
2022/03/16 02:45:05;;;;;;;77.75;36.25;;;;;;;4.01;100.00;102622.94;4825162;29;20026;-84
2022/03/16 02:47:31;;;;;;;60.17;31.60;;;;;;;3.98;100.00;102623.16;4811112;29;20019;-84
2022/03/16 02:49:56;;;;;;;49.72;28.65;;;;;;;4.00;100.00;102626.53;4810464;30;20028;-84
2022/03/16 02:52:22;;;;;;;60.88;29.67;;;;;;;3.89;100.00;102607.81;4793107;30;20036;-84
2022/03/16 02:54:48;;;;;;;52.90;27.30;;;;;;;4.07;100.00;102632.25;4793193;30;20031;-85
2022/03/16 02:57:16;;;;;;;50.38;24.80;;;;;;;4.06;100.00;102635.91;4811193;29;20043;-84
2022/03/16 02:59:42;;;;;;;37.90;22.52;;;;;;;4.05;100.00;102645.69;4795911;30;20039;-84
2022/03/16 03:02:07;;;;;;;43.53;23.15;;;;;;;3.93;100.00;102635.94;4811378;29;20015;-83
2022/03/16 03:04:33;;;;;;;43.70;21.15;;;;;;;4.03;100.00;102649.44;4795546;30;20038;-84
2022/03/16 03:06:58;;;;;;;42.28;21.48;;;;;;;3.97;100.00;102642.72;4801203;30;20043;-84
2022/03/16 03:09:23;;;;;;;44.63;19.27;;;;;;;3.97;100.00;102648.06;4817875;29;20053;-84
2022/03/16 03:11:49;;;;;;;41.55;18.42;;;;;;;3.95;100.00;102648.19;4795423;30;20098;-84
2022/03/16 03:14:14;;;;;;;37.65;18.13;;;;;;;3.94;100.00;102653.59;4795213;30;20035;-84
2022/03/16 03:16:40;;;;;;;36.40;16.67;;;;;;;3.90;100.00;102644.97;4810708;30;20035;-84
2022/03/16 03:19:05;;;;;;;35.58;16.10;;;;;;;3.94;100.00;102650.94;4813291;29;20047;-84
2022/03/16 03:21:31;;;;;;;54.63;16.08;;;;;;;3.89;100.00;102642.44;4797482;29;20041;-85
2022/03/16 03:23:56;;;;;;;35.50;16.40;;;;;;;3.92;100.00;102653.72;4824827;29;20028;-84
2022/03/16 03:26:21;;;;;;;43.10;16.35;;;;;;;3.87;100.00;102649.69;4812102;29;20074;-84
2022/03/16 03:28:47;;;;;;;42.13;16.90;;;;;;;3.80;100.00;102649.28;4808959;29;20432;-84
2022/03/16 03:31:14;;;;;;;40.30;16.17;;;;;;;3.89;100.00;102658.41;4803939;29;20060;-84
2022/03/16 03:33:39;;;;;;;47.47;15.57;;;;;;;3.86;100.00;102661.31;4813582;29;20109;-84
2022/03/16 03:36:05;;;;;;;54.88;17.48;;;;;;;3.84;100.00;102672.09;4809636;30;20135;-84
2022/03/16 03:38:30;;;;;;;32.85;16.58;;;;;;;3.90;100.00;102673.44;4814917;29;20031;-84
2022/03/16 03:40:55;;;;;;;53.97;17.33;;;;;;;3.84;100.00;102669.41;4798934;29;20026;-84
2022/03/16 03:45:56;;;;;;;67.00;19.42;;;;;;;2.06;100.00;102402.59;4853772;24;20039;-84
2022/03/16 03:48:22;;;;;;;129.40;19.45;;;;;;;3.85;100.00;102691.56;4795387;30;20069;-84
2022/03/16 03:50:47;;;;;;;68.20;20.33;;;;;;;3.83;100.00;102694.31;4821281;29;20038;-84
2022/03/16 03:53:15;;;;;;;41.08;18.50;;;;;;;3.80;100.00;102688.38;4813096;29;20035;-84
2022/03/16 03:55:41;;;;;;;81.68;19.77;;;;;;;3.84;100.00;102688.06;4811222;29;20022;-84
2022/03/16 03:58:06;;;;;;;46.38;18.27;;;;;;;3.82;100.00;102681.13;4809996;29;20031;-84
2022/03/16 04:00:31;;;;;;;81.15;20.58;;;;;;;3.89;100.00;102690.38;4798610;29;20049;-84
2022/03/16 04:02:57;;;;;;;60.13;17.30;;;;;;;3.87;100.00;102689.63;4811396;29;20087;-84
2022/03/16 04:05:22;;;;;;;110.68;18.60;;;;;;;3.82;100.00;102697.94;4828201;29;20039;-84
2022/03/16 04:07:50;;;;;;;108.82;18.52;;;;;;;3.79;100.00;102692.84;4811298;29;20049;-84
2022/03/16 04:10:16;;;;;;;78.13;20.05;;;;;;;3.78;100.00;102687.63;4780760;30;20027;-83
2022/03/16 04:12:42;;;;;;;95.20;17.92;;;;;;;3.75;100.00;102686.88;4794861;30;20027;-85
2022/03/16 04:15:08;;;;;;;74.95;17.77;;;;;;;3.84;100.00;102698.72;4796951;29;20023;-85
2022/03/16 04:17:35;;;;;;;94.53;19.42;;;;;;;3.71;100.00;102672.09;4794677;29;20047;-84
2022/03/16 04:20:00;;;;;;;41.38;17.83;;;;;;;3.91;100.00;102709.78;4821580;29;20051;-84
2022/03/16 04:22:27;;;;;;;34.42;17.00;;;;;;;3.94;100.00;102712.19;4819314;29;20039;-83
2022/03/16 04:24:53;;;;;;;65.70;18.88;;;;;;;3.88;100.00;102702.00;4828652;29;20035;-84
2022/03/16 04:27:20;;;;;;;59.17;19.25;;;;;;;3.92;100.00;102703.47;4808404;29;20042;-84
2022/03/16 04:29:45;;;;;;;57.58;19.95;;;;;;;3.85;100.00;102697.75;4818818;29;20031;-84
2022/03/16 04:32:11;;;;;;;81.82;20.58;;;;;;;3.90;100.00;102721.38;4795360;30;20074;-84
2022/03/16 04:34:36;;;;;;;35.47;17.75;;;;;;;3.94;100.00;102722.84;4811233;29;20031;-83
2022/03/16 04:37:02;;;;;;;77.82;19.20;;;;;;;3.74;100.00;102689.63;4808514;29;20019;-85
2022/03/16 04:39:27;;;;;;;65.43;18.65;;;;;;;3.92;100.00;102708.81;4821677;29;20072;-84
2022/03/16 04:41:52;;;;;;;59.40;18.52;;;;;;;3.91;100.00;102707.97;4813248;29;20141;-85
2022/03/16 04:44:18;;;;;;;46.13;17.20;;;;;;;3.90;100.00;102718.69;4812432;29;20062;-83
2022/03/16 04:51:54;;;;;;;145.98;20.70;;;;;;;3.90;100.00;102716.88;4951147;24;20058;-84
2022/03/16 04:54:19;;;;;;;56.25;17.73;;;;;;;3.85;100.00;102711.06;4766832;29;20039;-83
2022/03/16 04:56:44;;;;;;;47.70;17.20;;;;;;;3.88;100.00;102716.16;4794420;29;20107;-84
2022/03/16 04:59:10;;;;;;;67.00;18.38;;;;;;;3.90;100.00;102719.56;4795303;30;20043;-83
2022/03/16 05:01:35;;;;;;;86.10;19.10;;;;;;;3.87;100.00;102716.25;4860162;24;20027;-81
2022/03/16 05:04:01;;;;;;;53.83;17.35;;;;;;;2.99;100.00;102580.47;4804738;29;20035;-83
2022/03/16 05:06:26;;;;;;;74.00;18.15;;;;;;;3.76;100.00;102712.53;4950624;24;20171;-84
2022/03/16 05:08:52;;;;;;;99.38;18.48;;;;;;;2.35;100.00;102498.88;4826110;29;20054;-83
2022/03/16 05:11:21;;;;;;;67.82;18.20;;;;;;;3.59;100.00;102699.56;4827051;29;20037;-83
2022/03/16 05:13:46;;;;;;;63.70;17.98;;;;;;;3.67;100.00;102721.16;4792034;29;20015;-83
2022/03/16 05:16:12;;;;;;;67.57;17.52;;;;;;;3.66;100.00;102716.81;4809098;29;20024;-83
2022/03/16 05:18:40;;;;;;;58.42;17.42;;;;;;;2.02;100.00;102469.25;4855924;24;20066;-83
2022/03/16 05:21:08;;;;;;;101.53;18.50;;;;;;;2.18;100.00;102488.53;5037078;24;20063;-82
2022/03/16 05:26:07;;;;;;;98.65;19.80;;;;;;;2.30;100.00;102513.44;4773268;29;20081;-82
2022/03/16 05:28:33;;;;;;;61.47;17.92;;;;;;;2.49;100.00;102547.59;4763869;29;20024;-85
2022/03/16 05:36:09;;;;;;;52.00;17.73;;;;;;;2.81;100.00;102599.41;5166782;24;20264;-85
2022/03/16 05:38:34;;;;;;;175.88;20.42;;;;;;;3.78;100.00;102763.03;4797692;29;20134;-83
2022/03/16 05:40:59;;;;;;;60.20;17.92;;;;;;;3.80;100.00;102763.78;4813120;29;20023;-84
2022/03/16 05:43:25;;;;;;;60.17;17.10;;;;;;;3.85;100.00;102780.28;4814297;29;20042;-81
2022/03/16 05:45:50;;;;;;;73.10;16.58;;;;;;;3.78;100.00;102764.84;4799304;29;20035;-82
2022/03/16 05:48:16;;;;;;;73.60;16.75;;;;;;;3.66;100.00;102755.91;4791113;29;20078;-83
2022/03/16 05:53:16;;;;;;;41.25;15.15;;;;;;;3.10;100.00;102679.00;5096741;24;20050;-83
2022/03/16 06:21:34;;;;;;;35.75;14.13;;;;;;;2.58;100.00;102603.63;5553944;24;20089;-83
2022/03/16 09:46:26;;;;;;;35.92;23.67;;;;;;;5.76;100.00;102965.69;5800244;24;21107;31
2022/03/16 09:48:51;;;;;;;42.13;25.55;;;;;;;5.76;100.00;102962.13;4773613;30;20091;-82
2022/03/16 09:51:19;;;;;;;38.10;25.20;;;;;;;5.71;100.00;102970.50;4759619;29;20043;-84
2022/03/16 09:53:44;;;;;;;44.28;27.83;;;;;;;5.66;100.00;102964.63;4746185;30;20021;-85
2022/03/16 09:56:10;;;;;;;44.03;27.42;;;;;;;5.72;100.00;102960.66;4760083;30;20051;-84
2022/03/16 09:58:35;;;;;;;34.55;24.67;;;;;;;5.87;100.00;102970.22;4756756;30;20020;-84
2022/03/16 10:01:05;;;;;;;35.60;23.25;;;;;;;5.96;100.00;102979.38;4742404;30;20025;-84
2022/03/16 10:13:57;;;;;;;40.45;26.25;;;;;;;6.22;100.00;102970.22;5139994;24;20059;-85
2022/03/16 10:18:58;;;;;;;35.58;25.13;;;;;;;5.83;100.00;102869.88;5726550;24;21328;-84
2022/03/16 10:21:24;;;;;;;49.75;30.08;;;;;;;4.91;100.00;102722.84;4829272;29;20031;-84
2022/03/16 10:23:50;;;;;;;45.80;30.05;;;;;;;5.29;100.00;102779.63;4836466;29;20017;-84
2022/03/16 10:26:18;;;;;;;45.53;27.83;;;;;;;6.65;100.00;102982.09;4846641;29;20027;-84
2022/03/16 10:28:48;;;;;;;40.72;26.90;;;;;;;6.71;100.00;102979.78;4828981;29;20027;-84
2022/03/16 10:31:18;;;;;;;39.50;27.02;;;;;;;6.67;100.00;102985.53;4846992;29;20023;-84
2022/03/16 10:33:47;;;;;;;38.78;26.45;;;;;;;6.66;100.00;102981.16;4831441;29;20035;-85
2022/03/16 10:36:16;;;;;;;37.25;25.38;;;;;;;6.32;100.00;102944.50;5060206;24;20046;-84
2022/03/16 10:38:47;;;;;;;43.15;27.88;;;;;;;5.26;100.00;102770.03;4829403;29;20019;-84
2022/03/16 10:46:54;;;;;;;39.53;27.10;;;;;;;6.79;100.00;102980.06;4831394;29;20029;-85
2022/03/16 10:49:22;;;;;;;39.17;27.00;;;;;;;6.83;100.00;102992.22;4824266;29;20031;-84
2022/03/16 10:54:24;;;;;;;40.83;28.70;;;;;;;5.83;100.00;102830.66;4984003;24;20072;-84
2022/03/16 10:56:51;;;;;;;44.63;28.85;;;;;;;7.06;100.00;102994.91;4849019;29;20015;-84
2022/03/16 10:59:17;;;;;;;48.55;30.02;;;;;;;7.03;100.00;102976.41;4832856;29;20014;-84
2022/03/16 11:01:44;;;;;;;46.80;30.30;;;;;;;6.93;100.00;102954.03;4849408;29;20030;-84
2022/03/16 11:04:10;;;;;;;49.25;31.88;;;;;;;7.26;100.00;102991.47;4833615;29;20061;-84
2022/03/16 11:06:36;;;;;;;49.63;31.48;;;;;;;7.24;100.00;102989.88;4849355;29;20031;-84
2022/03/16 11:09:02;;;;;;;53.50;32.85;;;;;;;7.27;100.00;102998.53;4846675;29;20030;-85
2022/03/16 11:14:13;;;;;;;46.72;30.35;;;;;;;6.74;100.00;102947.44;4837473;29;20042;-84
2022/03/16 11:16:39;;;;;;;48.50;29.92;;;;;;;7.04;100.00;102975.44;4841948;29;20038;-84
2022/03/16 11:19:06;;;;;;;45.53;30.25;;;;;;;7.16;100.00;102978.97;4833549;29;20018;-84
2022/03/16 11:21:49;;;;;;;42.72;30.70;;;;;;;7.31;100.00;102985.75;4847644;29;20034;-84
2022/03/16 11:24:20;;;;;;;48.25;31.67;;;;;;;7.38;100.00;102994.13;4848800;29;20477;-84
2022/03/16 11:27:20;;;;;;;44.30;30.25;;;;;;;7.55;100.00;103004.34;4840964;29;20076;-84
2022/03/16 11:30:06;;;;;;;44.08;28.52;;;;;;;7.49;100.00;103005.69;4814399;29;20030;-84
2022/03/16 11:32:40;;;;;;;41.10;29.02;;;;;;;7.57;100.00;103006.88;4842363;29;20096;-84
2022/03/16 11:35:17;;;;;;;44.42;29.77;;;;;;;7.48;100.00;102973.66;4841665;29;20029;-84
2022/03/16 11:37:46;;;;;;;47.15;32.92;;;;;;;7.42;100.00;102983.06;4830941;29;20018;-84
2022/03/16 11:40:16;;;;;;;50.30;32.45;;;;;;;7.62;100.00;103010.06;4847678;29;20050;-83
2022/03/16 11:43:04;;;;;;;44.72;30.10;;;;;;;6.26;100.00;102779.22;4964797;24;20063;-84
2022/03/16 11:45:41;;;;;;;49.88;30.38;;;;;;;6.21;100.00;102776.06;4829443;29;20090;-83
2022/03/16 11:48:27;;;;;;;42.70;28.50;;;;;;;7.62;100.00;103004.69;4827267;29;20014;-85
2022/03/16 11:51:24;;;;;;;38.95;26.45;;;;;;;6.88;100.00;102883.94;4814250;29;20018;-84
2022/03/16 11:53:51;;;;;;;43.28;28.63;;;;;;;7.72;100.00;103002.94;4813568;29;20030;-84
2022/03/16 11:56:34;;;;;;;46.08;30.85;;;;;;;7.83;100.00;103007.41;4829549;29;20023;-83
2022/03/16 11:59:05;;;;;;;39.60;27.42;;;;;;;7.80;100.00;103013.88;4827920;29;19999;-84
2022/03/16 12:07:02;;;;;;;42.00;29.60;;;;;;;7.77;100.00;103011.44;4821486;29;20082;-84
2022/03/16 12:09:39;;;;;;;36.53;26.13;;;;;;;7.79;100.00;103020.22;4822758;29;20023;-83
2022/03/16 12:15:12;;;;;;;43.13;28.48;;;;;;;7.66;100.00;103022.22;4922852;23;20045;-83
2022/03/16 12:17:56;;;;;;;37.53;26.20;;;;;;;7.57;100.00;103022.97;4817293;29;20034;-84
2022/03/16 12:20:21;;;;;;;38.28;25.10;;;;;;;7.57;100.00;103022.97;4811202;29;20031;-83
2022/03/16 12:22:49;;;;;;;33.38;23.38;;;;;;;7.60;100.00;103020.88;4811301;30;20015;-84
2022/03/16 12:25:27;;;;;;;36.50;23.13;;;;;;;7.62;100.00;103021.63;5332068;24;20043;-83
2022/03/16 12:30:49;;;;;;;32.15;22.30;;;;;;;7.68;100.00;103022.91;4797322;29;20023;-84
2022/03/16 12:33:19;;;;;;;29.45;21.05;;;;;;;7.52;100.00;103020.66;4808976;30;20024;-84
2022/03/16 12:35:49;;;;;;;29.45;20.75;;;;;;;7.62;100.00;103026.13;4793680;30;20032;-84
2022/03/16 12:38:15;;;;;;;34.08;21.05;;;;;;;7.76;100.00;103020.47;4777062;30;20099;-83
2022/03/16 12:43:28;;;;;;;27.38;20.48;;;;;;;7.85;100.00;103008.16;4796379;30;20042;-83
2022/03/16 12:46:23;;;;;;;33.03;20.83;;;;;;;7.83;100.00;103024.34;4798086;30;20031;-84
2022/03/16 12:48:54;;;;;;;28.85;19.58;;;;;;;7.71;100.00;103028.88;4799163;29;20027;-84
2022/03/16 12:51:38;;;;;;;26.70;18.70;;;;;;;7.46;100.00;103037.22;4784896;30;20027;-84
2022/03/16 12:54:07;;;;;;;23.60;16.70;;;;;;;7.46;100.00;103032.72;4793220;29;20159;-83
2022/03/16 12:56:44;;;;;;;23.73;16.83;;;;;;;7.62;100.00;103026.13;4795316;30;20047;-84
2022/03/16 12:59:10;;;;;;;23.90;17.80;;;;;;;7.69;100.00;103028.16;4807789;30;20011;-84
2022/03/16 13:01:37;;;;;;;22.13;17.10;;;;;;;7.86;100.00;103013.38;4794070;30;20015;-83
2022/03/16 13:04:07;;;;;;;23.10;16.70;;;;;;;8.05;100.00;103025.25;4788952;30;20000;-84
2022/03/16 13:06:33;;;;;;;26.60;19.25;;;;;;;7.96;100.00;103024.19;4779185;30;20031;-83
2022/03/16 13:09:11;;;;;;;22.08;16.92;;;;;;;7.70;100.00;103013.78;4797471;30;20359;-84
2022/03/16 13:11:39;;;;;;;21.65;15.57;;;;;;;7.60;100.00;103002.13;4810349;29;20030;-84
2022/03/16 13:14:18;;;;;;;21.55;15.63;;;;;;;7.60;100.00;103017.34;4804314;30;20075;-84
2022/03/16 13:16:56;;;;;;;22.15;15.95;;;;;;;7.53;100.00;103028.56;4792288;30;20028;-83
2022/03/16 13:19:24;;;;;;;19.58;15.88;;;;;;;7.27;100.00;103011.91;4796559;30;20071;-84
2022/03/16 13:22:04;;;;;;;19.98;14.60;;;;;;;7.55;100.00;103020.41;4797270;30;20027;-84
2022/03/16 13:24:30;;;;;;;21.23;14.45;;;;;;;7.66;100.00;103019.53;4776466;30;20035;-83
2022/03/16 13:26:56;;;;;;;17.13;13.45;;;;;;;7.79;100.00;103027.41;4791585;30;20075;-84
2022/03/16 13:29:22;;;;;;;18.85;14.40;;;;;;;7.83;100.00;103026.19;4778275;30;20031;-84
2022/03/16 13:31:55;;;;;;;25.10;15.15;;;;;;;7.67;100.00;102992.59;4792040;30;20024;-84
2022/03/16 13:36:56;;;;;;;22.52;16.30;;;;;;;6.86;100.00;102846.63;5288714;24;20047;-84
2022/03/16 13:39:27;;;;;;;21.83;15.35;;;;;;;7.87;100.00;103012.38;4828577;29;20079;-84
2022/03/16 13:42:12;;;;;;;20.00;15.10;;;;;;;7.43;100.00;103016.03;4813686;29;20186;-84
2022/03/16 13:44:41;;;;;;;21.55;15.32;;;;;;;6.93;100.00;103028.97;4816859;29;20023;-84
2022/03/16 13:47:22;;;;;;;20.95;14.88;;;;;;;6.51;100.00;103023.31;4795269;30;20036;-85
2022/03/16 13:49:50;;;;;;;32.67;17.77;;;;;;;6.07;100.00;103023.03;4811130;29;20042;-84
2022/03/16 13:52:20;;;;;;;27.25;16.75;;;;;;;5.67;100.00;103013.59;4795687;29;20020;-83
2022/03/16 13:54:47;;;;;;;30.27;17.35;;;;;;;5.43;100.00;103009.06;4810756;29;20027;-84
2022/03/16 13:57:22;;;;;;;30.33;17.23;;;;;;;5.41;100.00;103032.34;4805366;29;20042;-83
2022/03/16 13:59:56;;;;;;;31.05;18.05;;;;;;;5.28;100.00;103028.84;4827877;29;20524;-83
2022/03/16 14:02:24;;;;;;;32.00;19.00;;;;;;;5.22;100.00;103037.28;4813011;29;20046;-84
2022/03/16 14:05:01;;;;;;;42.47;18.58;;;;;;;5.13;100.00;103034.34;4810339;29;20019;-84
2022/03/16 14:07:29;;;;;;;44.65;20.15;;;;;;;4.91;100.00;103028.78;4802937;29;20015;-84
2022/03/16 14:09:59;;;;;;;57.13;20.88;;;;;;;4.68;100.00;103041.91;4812442;29;20027;-84
2022/03/16 14:12:31;;;;;;;46.08;17.92;;;;;;;4.59;100.00;103045.19;4829769;29;20038;-84
2022/03/16 14:15:16;;;;;;;49.17;19.60;;;;;;;4.36;100.00;103017.44;4816331;29;20030;-84
2022/03/16 14:17:53;;;;;;;119.45;22.83;;;;;;;4.46;100.00;103055.00;4816126;29;20044;-84
2022/03/16 14:20:25;;;;;;;62.67;18.58;;;;;;;4.02;100.00;102992.22;4812646;30;20020;-83
2022/03/16 14:22:52;;;;;;;61.15;19.23;;;;;;;4.28;100.00;103038.44;4799747;29;20036;-83
2022/03/16 14:25:19;;;;;;;48.25;19.00;;;;;;;4.34;100.00;103045.16;4812271;30;20016;-84
2022/03/16 14:27:48;;;;;;;39.38;18.38;;;;;;;4.20;100.00;103033.59;4813249;29;20058;-84
2022/03/16 14:30:15;;;;;;;75.65;20.42;;;;;;;4.28;100.00;103050.91;4830729;29;20050;-83
2022/03/16 14:32:41;;;;;;;145.23;25.30;;;;;;;2.75;100.00;102812.50;5136064;24;20075;-83
2022/03/16 14:35:08;;;;;;;91.43;22.80;;;;;;;4.20;100.00;103048.75;4815337;29;20062;-84
2022/03/16 14:37:34;;;;;;;86.57;23.33;;;;;;;4.00;100.00;103018.94;4830454;29;20110;-84
2022/03/16 14:39:59;;;;;;;62.65;21.38;;;;;;;3.99;100.00;103025.25;4832226;29;20029;-84
2022/03/16 14:42:25;;;;;;;159.23;25.02;;;;;;;4.13;100.00;103055.44;4816012;29;20022;-83
2022/03/16 14:44:51;;;;;;;69.15;21.40;;;;;;;4.15;100.00;103061.53;4834184;29;20042;-83
2022/03/16 14:47:17;;;;;;;102.82;24.13;;;;;;;4.10;100.00;103059.16;4818315;29;20105;-84
2022/03/16 14:49:43;;;;;;;49.15;21.25;;;;;;;4.02;100.00;103024.19;4831098;29;20060;-84
2022/03/16 14:52:09;;;;;;;39.55;20.60;;;;;;;4.31;100.00;103051.56;4830717;29;20019;-84
2022/03/16 14:54:35;;;;;;;57.28;19.50;;;;;;;4.34;100.00;103046.03;4801011;29;20027;-84
2022/03/16 14:57:00;;;;;;;53.20;19.45;;;;;;;4.30;100.00;103027.66;4815209;29;20022;-84
2022/03/16 14:59:26;;;;;;;98.10;20.48;;;;;;;4.34;100.00;103035.38;4814816;29;20026;-84
2022/03/16 15:01:51;;;;;;;140.50;19.60;;;;;;;4.28;100.00;103042.91;4831040;29;20018;-84
2022/03/16 15:04:22;;;;;;;217.00;25.55;;;;;;;4.10;100.00;103015.69;4800102;29;20042;-85
2022/03/16 15:06:48;;;;;;;183.40;24.25;;;;;;;4.16;100.00;103021.44;4798745;30;20039;-84
2022/03/16 15:09:13;;;;;;;106.13;21.35;;;;;;;4.20;100.00;103032.75;4821640;29;20062;-84
2022/03/16 15:11:38;;;;;;;84.07;22.38;;;;;;;4.26;100.00;103035.00;4800392;29;20026;-84
2022/03/16 15:14:05;;;;;;;67.03;21.20;;;;;;;4.20;100.00;103008.78;4813909;29;20019;-84
2022/03/16 15:16:31;;;;;;;134.20;22.63;;;;;;;4.22;100.00;103023.72;4815052;29;20038;-84
2022/03/16 15:18:56;;;;;;;214.23;27.55;;;;;;;4.13;100.00;103016.31;4830300;29;20071;-84
2022/03/16 15:21:21;;;;;;;177.38;22.55;;;;;;;4.20;100.00;103033.59;4849454;29;20033;-85
2022/03/16 15:23:47;;;;;;;114.43;23.02;;;;;;;4.17;100.00;103033.84;4832292;29;20074;-84
2022/03/16 15:26:13;;;;;;;130.15;22.77;;;;;;;4.03;100.00;103014.38;4844581;29;20042;-85
2022/03/16 15:28:39;;;;;;;228.75;25.88;;;;;;;2.94;100.00;102848.50;4978460;24;20040;-84
2022/03/16 15:31:05;;;;;;;93.30;21.98;;;;;;;4.09;100.00;103022.81;4794805;29;20383;-84
2022/03/16 15:33:33;;;;;;;257.77;25.25;;;;;;;3.85;100.00;102981.84;4805062;29;20039;-83
2022/03/16 15:35:59;;;;;;;342.75;26.45;;;;;;;4.04;100.00;103016.97;4817092;29;20020;-84
2022/03/16 15:38:25;;;;;;;351.38;25.35;;;;;;;3.90;100.00;103009.00;4797300;29;20469;-82
2022/03/16 15:43:35;;;;;;;130.82;22.08;;;;;;;2.51;100.00;102767.06;4793863;30;20046;-83
2022/03/16 15:46:00;;;;;;;212.07;22.10;;;;;;;4.06;100.00;103017.69;4791886;29;20019;-83
2022/03/16 15:48:25;;;;;;;194.18;24.83;;;;;;;3.99;100.00;103003.06;4796674;29;20039;-83
2022/03/16 15:50:51;;;;;;;127.75;22.33;;;;;;;4.02;100.00;103012.69;4795337;29;20111;-83
2022/03/16 15:53:16;;;;;;;151.60;25.77;;;;;;;3.96;100.00;103005.94;5007284;24;20043;-83
2022/03/16 15:55:41;;;;;;;409.58;32.38;;;;;;;4.01;100.00;103011.84;4834523;29;20039;-83
2022/03/16 15:58:09;;;;;;;228.35;22.40;;;;;;;3.84;100.00;102974.78;4817402;29;20030;-82
2022/03/16 16:00:34;;;;;;;279.83;23.90;;;;;;;3.97;100.00;102994.31;5022669;24;20065;-82